Chang Sheng — V3PK — position and weather

sailwx.info

Track history (hours):
 
Tides and Currents Weather Stations Pressure Air Temp Water Temp Dewpoint Dewpoint Depression Visibility Wind Speed Wind Dir Waves Ship Positions

Chang Sheng

Last reported at 2014-Oct-31 04:33 UTC. Time now 2014-Oct-31 07:51 UTC.
Position N 38°58' E 117°50'.

Length 86 m; draft 5.2 m.

Type: Cargo ship. MMSI: 312161000.

Date/timePositionNaut miles runAvg speedWind from/ knotsBaromVisibWave heightAir tempDewpointWater temp
2014-Oct-31 04:33N 38°58' E 117°50'3 2.9
2014-Oct-31 03:28N 38°58' E 117°46'0 0.0
2014-Oct-31 02:28N 38°58' E 117°46'0 0.0
2014-Oct-31 01:28N 38°58' E 117°46'0 0.0
2014-Oct-31 00:10N 38°58' E 117°46'0 0.0
2014-Oct-30 23:22N 38°58' E 117°46'0 0.0
2014-Oct-30 22:28N 38°58' E 117°46'1 0.7
2014-Oct-30 21:33N 38°58' E 117°47'9 9.1
2014-Oct-30 20:32N 38°58' E 117°59'1 0.2
2014-Oct-30 17:24N 38°58' E 117°60'0 0.0
2014-Oct-30 16:21N 38°58' E 117°60'0 0.0
2014-Oct-30 12:29N 38°58' E 117°60'0 0.0
2014-Oct-30 10:23N 38°58' E 117°60'0 0.1
2014-Oct-30 08:33N 38°59' E 117°60'168 9.3
2014-Oct-29 14:33N 37°56' E 121°18'9 8.6
2014-Oct-29 13:33N 37°54' E 121°29'9 8.6
2014-Oct-29 12:32N 37°52' E 121°40'9 8.8
2014-Oct-29 11:33N 37°50' E 121°51'10 8.7
2014-Oct-29 10:27N 37°49' E 122°03'8 8.5
2014-Oct-29 09:33N 37°47' E 122°12'8 8.2
2014-Oct-29 08:33N 37°45' E 122°22'9 7.7
2014-Oct-29 07:27N 37°42' E 122°32'7 7.5
2014-Oct-29 06:33N 37°39' E 122°40'8 7.8
2014-Oct-29 05:30N 37°37' E 122°50'9 8.4
2014-Oct-29 04:28N 37°36' E 123°01'8 8.9
2014-Oct-29 03:31N 37°34' E 123°11'10 9.6
2014-Oct-29 02:31N 37°32' E 123°23'10 9.8
2014-Oct-29 01:29N 37°29' E 123°36'11 9.8
2014-Oct-29 00:21N 37°26' E 123°49'  
2014-Oct-24 20:28N 36°39' E 125°57'  
2014-Oct-22 11:28N 31°18' E 121°44'9 9.9
2014-Oct-22 10:32N 31°23' E 121°35'1010.2
2014-Oct-22 09:33N 31°29' E 121°26'1010.0
2014-Oct-22 08:32N 31°36' E 121°17'10 9.9
2014-Oct-22 07:33N 31°42' E 121°08'8 8.3
2014-Oct-22 06:33N 31°47' E 120°60'7 6.7
2014-Oct-22 05:33N 31°48' E 120°52'2 2.0
2014-Oct-22 04:33N 31°50' E 120°51'0 0.0
2014-Oct-22 03:33N 31°50' E 120°51'0 0.0
2014-Oct-22 02:33N 31°50' E 120°51'0 0.0
2014-Oct-22 01:33N 31°50' E 120°51'0 0.0
2014-Oct-22 00:33N 31°50' E 120°51'0 0.0
2014-Oct-21 23:33N 31°50' E 120°51'0 0.0
2014-Oct-21 22:30N 31°50' E 120°51'0 0.0
2014-Oct-21 21:25N 31°50' E 120°51'0 0.0
2014-Oct-21 20:31N 31°50' E 120°51'0 0.0
2014-Oct-21 19:33N 31°50' E 120°51'0 0.0
2014-Oct-21 18:27N 31°50' E 120°51'0 0.0
2014-Oct-21 17:31N 31°50' E 120°51'0 0.0
2014-Oct-21 16:33N 31°50' E 120°51'0 0.0
2014-Oct-21 15:33N 31°50' E 120°51'0 0.0
2014-Oct-21 14:21N 31°50' E 120°51'0 0.0
2014-Oct-21 13:15N 31°50' E 120°51'0 0.0
2014-Oct-21 12:33N 31°50' E 120°51'0 0.0
2014-Oct-21 11:33N 31°50' E 120°51'0 0.0
2014-Oct-21 10:31N 31°50' E 120°51'0 0.0
2014-Oct-21 09:30N 31°50' E 120°51'0 0.0
2014-Oct-21 08:18N 31°50' E 120°51'0 0.0
2014-Oct-21 07:33N 31°50' E 120°51'0 0.1
2014-Oct-21 06:33N 31°50' E 120°51'5 4.2
2014-Oct-21 05:25N 31°48' E 120°56'7 7.6
2014-Oct-21 04:33N 31°54' E 120°53'  
Track history (hours):
 
Tides and Currents Weather Stations Pressure Air Temp Water Temp Dewpoint Dewpoint Depression Visibility Wind Speed Wind Dir Waves Ship Positions

Chang Sheng

Last reported at 2014-Oct-31 04:33 UTC. Time now 2014-Oct-31 07:51 UTC.
Position N 38°58' E 117°50'.

Length 86 m; draft 5.2 m.

Type: Cargo ship. MMSI: 312161000.

Date/timePositionNaut miles runAvg speedWind from/ knotsBaromVisibWave heightAir tempDewpointWater temp
2014-Oct-31 04:33N 38°58' E 117°50'3 2.9
2014-Oct-31 03:28N 38°58' E 117°46'0 0.0
2014-Oct-31 02:28N 38°58' E 117°46'0 0.0
2014-Oct-31 01:28N 38°58' E 117°46'0 0.0
2014-Oct-31 00:10N 38°58' E 117°46'0 0.0
2014-Oct-30 23:22N 38°58' E 117°46'0 0.0
2014-Oct-30 22:28N 38°58' E 117°46'1 0.7
2014-Oct-30 21:33N 38°58' E 117°47'9 9.1
2014-Oct-30 20:32N 38°58' E 117°59'1 0.2
2014-Oct-30 17:24N 38°58' E 117°60'0 0.0
2014-Oct-30 16:21N 38°58' E 117°60'0 0.0
2014-Oct-30 12:29N 38°58' E 117°60'0 0.0
2014-Oct-30 10:23N 38°58' E 117°60'0 0.1
2014-Oct-30 08:33N 38°59' E 117°60'168 9.3
2014-Oct-29 14:33N 37°56' E 121°18'9 8.6
2014-Oct-29 13:33N 37°54' E 121°29'9 8.6
2014-Oct-29 12:32N 37°52' E 121°40'9 8.8
2014-Oct-29 11:33N 37°50' E 121°51'10 8.7
2014-Oct-29 10:27N 37°49' E 122°03'8 8.5
2014-Oct-29 09:33N 37°47' E 122°12'8 8.2
2014-Oct-29 08:33N 37°45' E 122°22'9 7.7
2014-Oct-29 07:27N 37°42' E 122°32'7 7.5
2014-Oct-29 06:33N 37°39' E 122°40'8 7.8
2014-Oct-29 05:30N 37°37' E 122°50'9 8.4
2014-Oct-29 04:28N 37°36' E 123°01'8 8.9
2014-Oct-29 03:31N 37°34' E 123°11'10 9.6
2014-Oct-29 02:31N 37°32' E 123°23'10 9.8
2014-Oct-29 01:29N 37°29' E 123°36'11 9.8
2014-Oct-29 00:21N 37°26' E 123°49'  
2014-Oct-24 20:28N 36°39' E 125°57'  
2014-Oct-22 11:28N 31°18' E 121°44'9 9.9
2014-Oct-22 10:32N 31°23' E 121°35'1010.2
2014-Oct-22 09:33N 31°29' E 121°26'1010.0
2014-Oct-22 08:32N 31°36' E 121°17'10 9.9
2014-Oct-22 07:33N 31°42' E 121°08'8 8.3
2014-Oct-22 06:33N 31°47' E 120°60'7 6.7
2014-Oct-22 05:33N 31°48' E 120°52'2 2.0
2014-Oct-22 04:33N 31°50' E 120°51'0 0.0
2014-Oct-22 03:33N 31°50' E 120°51'0 0.0
2014-Oct-22 02:33N 31°50' E 120°51'0 0.0
2014-Oct-22 01:33N 31°50' E 120°51'0 0.0
2014-Oct-22 00:33N 31°50' E 120°51'0 0.0
2014-Oct-21 23:33N 31°50' E 120°51'0 0.0
2014-Oct-21 22:30N 31°50' E 120°51'0 0.0
2014-Oct-21 21:25N 31°50' E 120°51'0 0.0
2014-Oct-21 20:31N 31°50' E 120°51'0 0.0
2014-Oct-21 19:33N 31°50' E 120°51'0 0.0
2014-Oct-21 18:27N 31°50' E 120°51'0 0.0
2014-Oct-21 17:31N 31°50' E 120°51'0 0.0
2014-Oct-21 16:33N 31°50' E 120°51'0 0.0
2014-Oct-21 15:33N 31°50' E 120°51'0 0.0
2014-Oct-21 14:21N 31°50' E 120°51'0 0.0
2014-Oct-21 13:15N 31°50' E 120°51'0 0.0
2014-Oct-21 12:33N 31°50' E 120°51'0 0.0
2014-Oct-21 11:33N 31°50' E 120°51'0 0.0
2014-Oct-21 10:31N 31°50' E 120°51'0 0.0
2014-Oct-21 09:30N 31°50' E 120°51'0 0.0
2014-Oct-21 08:18N 31°50' E 120°51'0 0.0
2014-Oct-21 07:33N 31°50' E 120°51'0 0.1
2014-Oct-21 06:33N 31°50' E 120°51'5 4.2
2014-Oct-21 05:25N 31°48' E 120°56'7 7.6
2014-Oct-21 04:33N 31°54' E 120°53'  

Dump ship's entire track history